sensor_id;sensor_type;location;lat;lon;timestamp;P1;durP1;ratioP1;P2;durP2;ratioP2
76405;SDS011;65234;50.044;19.258;2022-11-20T00:00:09;36.63;;;29.83;;
76405;SDS011;65234;50.044;19.258;2022-11-20T00:02:56;27.53;;;25.13;;
76405;SDS011;65234;50.044;19.258;2022-11-20T00:05:21;29.97;;;26.97;;
76405;SDS011;65234;50.044;19.258;2022-11-20T00:07:48;25.50;;;23.80;;
76405;SDS011;65234;50.044;19.258;2022-11-20T00:10:14;31.40;;;28.43;;
76405;SDS011;65234;50.044;19.258;2022-11-20T00:12:40;29.23;;;26.60;;
76405;SDS011;65234;50.044;19.258;2022-11-20T00:15:06;30.37;;;27.77;;
76405;SDS011;65234;50.044;19.258;2022-11-20T00:17:33;27.80;;;25.23;;
76405;SDS011;65234;50.044;19.258;2022-11-20T00:19:58;26.70;;;24.20;;
76405;SDS011;65234;50.044;19.258;2022-11-20T00:22:24;28.87;;;26.63;;
76405;SDS011;65234;50.044;19.258;2022-11-20T00:24:51;26.53;;;23.73;;
76405;SDS011;65234;50.044;19.258;2022-11-20T00:27:17;39.97;;;31.40;;
76405;SDS011;65234;50.044;19.258;2022-11-20T00:29:42;32.03;;;28.87;;
76405;SDS011;65234;50.044;19.258;2022-11-20T00:32:08;31.80;;;28.50;;
76405;SDS011;65234;50.044;19.258;2022-11-20T00:34:34;34.33;;;31.20;;
76405;SDS011;65234;50.044;19.258;2022-11-20T00:37:00;29.20;;;25.27;;
76405;SDS011;65234;50.044;19.258;2022-11-20T00:39:25;27.97;;;25.13;;
76405;SDS011;65234;50.044;19.258;2022-11-20T00:41:52;30.70;;;27.83;;
76405;SDS011;65234;50.044;19.258;2022-11-20T00:44:18;27.43;;;25.23;;
76405;SDS011;65234;50.044;19.258;2022-11-20T00:46:44;31.37;;;27.83;;
76405;SDS011;65234;50.044;19.258;2022-11-20T00:49:09;28.90;;;26.17;;
76405;SDS011;65234;50.044;19.258;2022-11-20T00:51:35;29.43;;;27.43;;
76405;SDS011;65234;50.044;19.258;2022-11-20T00:54:01;32.20;;;28.33;;
76405;SDS011;65234;50.044;19.258;2022-11-20T00:56:27;33.93;;;26.43;;
76405;SDS011;65234;50.044;19.258;2022-11-20T00:58:54;31.83;;;29.30;;
76405;SDS011;65234;50.044;19.258;2022-11-20T01:01:21;68.13;;;31.70;;
76405;SDS011;65234;50.044;19.258;2022-11-20T01:03:49;28.33;;;25.60;;
76405;SDS011;65234;50.044;19.258;2022-11-20T01:06:17;31.77;;;29.20;;
76405;SDS011;65234;50.044;19.258;2022-11-20T01:08:44;35.47;;;29.73;;
76405;SDS011;65234;50.044;19.258;2022-11-20T01:11:12;27.57;;;25.70;;
76405;SDS011;65234;50.044;19.258;2022-11-20T01:13:40;26.37;;;24.57;;
76405;SDS011;65234;50.044;19.258;2022-11-20T01:16:08;29.50;;;26.40;;
76405;SDS011;65234;50.044;19.258;2022-11-20T01:18:35;26.40;;;24.40;;
76405;SDS011;65234;50.044;19.258;2022-11-20T01:21:03;25.83;;;23.50;;
76405;SDS011;65234;50.044;19.258;2022-11-20T01:23:31;30.50;;;27.87;;
76405;SDS011;65234;50.044;19.258;2022-11-20T01:25:59;43.57;;;30.30;;
76405;SDS011;65234;50.044;19.258;2022-11-20T01:28:25;29.77;;;27.73;;
76405;SDS011;65234;50.044;19.258;2022-11-20T01:30:51;26.77;;;25.07;;
76405;SDS011;65234;50.044;19.258;2022-11-20T01:33:18;34.27;;;27.30;;
76405;SDS011;65234;50.044;19.258;2022-11-20T01:35:43;28.17;;;26.00;;
76405;SDS011;65234;50.044;19.258;2022-11-20T01:38:09;30.47;;;27.83;;
76405;SDS011;65234;50.044;19.258;2022-11-20T01:40:35;33.40;;;27.30;;
76405;SDS011;65234;50.044;19.258;2022-11-20T01:43:06;31.73;;;28.33;;
76405;SDS011;65234;50.044;19.258;2022-11-20T01:45:47;25.53;;;23.73;;
76405;SDS011;65234;50.044;19.258;2022-11-20T01:50:52;33.00;;;28.67;;
76405;SDS011;65234;50.044;19.258;2022-11-20T01:53:18;29.87;;;24.00;;
76405;SDS011;65234;50.044;19.258;2022-11-20T01:55:49;28.30;;;25.57;;
76405;SDS011;65234;50.044;19.258;2022-11-20T01:58:16;28.57;;;25.73;;
76405;SDS011;65234;50.044;19.258;2022-11-20T02:00:45;29.47;;;26.93;;
76405;SDS011;65234;50.044;19.258;2022-11-20T02:03:12;29.93;;;27.57;;
76405;SDS011;65234;50.044;19.258;2022-11-20T02:05:43;32.80;;;30.07;;
76405;SDS011;65234;50.044;19.258;2022-11-20T02:08:12;28.37;;;25.67;;
76405;SDS011;65234;50.044;19.258;2022-11-20T02:10:39;25.53;;;23.47;;
76405;SDS011;65234;50.044;19.258;2022-11-20T02:13:05;27.90;;;25.17;;
76405;SDS011;65234;50.044;19.258;2022-11-20T02:15:32;31.83;;;28.93;;
76405;SDS011;65234;50.044;19.258;2022-11-20T02:17:58;26.13;;;24.13;;
76405;SDS011;65234;50.044;19.258;2022-11-20T02:20:24;27.23;;;25.03;;
76405;SDS011;65234;50.044;19.258;2022-11-20T02:22:53;28.70;;;26.07;;
76405;SDS011;65234;50.044;19.258;2022-11-20T02:25:25;35.63;;;25.80;;
76405;SDS011;65234;50.044;19.258;2022-11-20T02:27:52;30.10;;;27.63;;
76405;SDS011;65234;50.044;19.258;2022-11-20T02:30:18;26.70;;;24.50;;
76405;SDS011;65234;50.044;19.258;2022-11-20T02:32:44;30.53;;;27.63;;
76405;SDS011;65234;50.044;19.258;2022-11-20T02:35:37;28.97;;;26.47;;
76405;SDS011;65234;50.044;19.258;2022-11-20T02:38:06;27.30;;;25.00;;
76405;SDS011;65234;50.044;19.258;2022-11-20T02:40:32;29.83;;;27.40;;
76405;SDS011;65234;50.044;19.258;2022-11-20T02:42:57;28.83;;;26.10;;
76405;SDS011;65234;50.044;19.258;2022-11-20T02:45:23;26.23;;;24.43;;
76405;SDS011;65234;50.044;19.258;2022-11-20T02:47:50;28.37;;;25.77;;
76405;SDS011;65234;50.044;19.258;2022-11-20T02:50:16;26.10;;;24.30;;
76405;SDS011;65234;50.044;19.258;2022-11-20T02:52:42;26.97;;;24.67;;
76405;SDS011;65234;50.044;19.258;2022-11-20T02:55:09;30.20;;;27.50;;
76405;SDS011;65234;50.044;19.258;2022-11-20T02:57:35;30.83;;;27.90;;
76405;SDS011;65234;50.044;19.258;2022-11-20T03:00:01;26.87;;;24.73;;
76405;SDS011;65234;50.044;19.258;2022-11-20T03:02:29;28.20;;;26.17;;
76405;SDS011;65234;50.044;19.258;2022-11-20T03:04:55;26.50;;;24.60;;
76405;SDS011;65234;50.044;19.258;2022-11-20T03:07:20;27.20;;;25.27;;
76405;SDS011;65234;50.044;19.258;2022-11-20T03:09:46;32.80;;;27.60;;
76405;SDS011;65234;50.044;19.258;2022-11-20T03:12:13;27.10;;;24.90;;
76405;SDS011;65234;50.044;19.258;2022-11-20T03:14:39;26.63;;;24.53;;
76405;SDS011;65234;50.044;19.258;2022-11-20T03:17:05;27.80;;;25.27;;
76405;SDS011;65234;50.044;19.258;2022-11-20T03:19:34;26.37;;;24.27;;
76405;SDS011;65234;50.044;19.258;2022-11-20T03:21:59;26.73;;;24.87;;
76405;SDS011;65234;50.044;19.258;2022-11-20T03:24:25;27.07;;;24.90;;
76405;SDS011;65234;50.044;19.258;2022-11-20T03:26:51;26.60;;;24.30;;
76405;SDS011;65234;50.044;19.258;2022-11-20T03:29:18;27.50;;;24.23;;
76405;SDS011;65234;50.044;19.258;2022-11-20T03:31:44;23.20;;;21.57;;
76405;SDS011;65234;50.044;19.258;2022-11-20T03:34:10;27.27;;;24.77;;
76405;SDS011;65234;50.044;19.258;2022-11-20T03:36:37;31.33;;;28.63;;
76405;SDS011;65234;50.044;19.258;2022-11-20T03:39:03;29.50;;;26.93;;
76405;SDS011;65234;50.044;19.258;2022-11-20T03:41:29;25.87;;;23.97;;
76405;SDS011;65234;50.044;19.258;2022-11-20T03:43:57;27.20;;;24.50;;
76405;SDS011;65234;50.044;19.258;2022-11-20T03:46:26;27.13;;;24.43;;
76405;SDS011;65234;50.044;19.258;2022-11-20T03:48:53;26.83;;;24.67;;
76405;SDS011;65234;50.044;19.258;2022-11-20T03:51:20;25.50;;;23.63;;
76405;SDS011;65234;50.044;19.258;2022-11-20T03:53:48;27.77;;;25.40;;
76405;SDS011;65234;50.044;19.258;2022-11-20T03:56:15;25.80;;;23.83;;
76405;SDS011;65234;50.044;19.258;2022-11-20T03:58:42;26.00;;;24.00;;
76405;SDS011;65234;50.044;19.258;2022-11-20T04:01:09;39.13;;;28.97;;
76405;SDS011;65234;50.044;19.258;2022-11-20T04:03:38;29.93;;;27.03;;
76405;SDS011;65234;50.044;19.258;2022-11-20T04:06:06;29.90;;;26.70;;
76405;SDS011;65234;50.044;19.258;2022-11-20T04:08:34;27.90;;;25.57;;
76405;SDS011;65234;50.044;19.258;2022-11-20T04:11:09;26.00;;;23.53;;
76405;SDS011;65234;50.044;19.258;2022-11-20T04:13:36;30.57;;;27.90;;
76405;SDS011;65234;50.044;19.258;2022-11-20T04:16:02;27.13;;;24.93;;
76405;SDS011;65234;50.044;19.258;2022-11-20T04:18:28;29.53;;;27.40;;
76405;SDS011;65234;50.044;19.258;2022-11-20T04:20:55;31.00;;;28.93;;
76405;SDS011;65234;50.044;19.258;2022-11-20T04:23:21;28.27;;;25.97;;
76405;SDS011;65234;50.044;19.258;2022-11-20T04:25:47;29.20;;;25.70;;
76405;SDS011;65234;50.044;19.258;2022-11-20T04:28:13;32.13;;;28.73;;
76405;SDS011;65234;50.044;19.258;2022-11-20T04:30:39;28.13;;;25.43;;
76405;SDS011;65234;50.044;19.258;2022-11-20T04:33:04;35.33;;;32.10;;
76405;SDS011;65234;50.044;19.258;2022-11-20T04:35:30;35.17;;;32.30;;
76405;SDS011;65234;50.044;19.258;2022-11-20T04:38:00;31.33;;;28.73;;
76405;SDS011;65234;50.044;19.258;2022-11-20T04:40:27;31.40;;;28.53;;
76405;SDS011;65234;50.044;19.258;2022-11-20T04:42:54;30.33;;;27.67;;
76405;SDS011;65234;50.044;19.258;2022-11-20T04:45:19;31.97;;;29.30;;
76405;SDS011;65234;50.044;19.258;2022-11-20T04:47:45;28.67;;;26.53;;
76405;SDS011;65234;50.044;19.258;2022-11-20T04:50:11;36.10;;;31.63;;
76405;SDS011;65234;50.044;19.258;2022-11-20T04:52:37;31.97;;;28.77;;
76405;SDS011;65234;50.044;19.258;2022-11-20T04:55:04;31.10;;;28.70;;
76405;SDS011;65234;50.044;19.258;2022-11-20T04:57:31;28.83;;;26.43;;
76405;SDS011;65234;50.044;19.258;2022-11-20T04:59:56;28.17;;;25.67;;
76405;SDS011;65234;50.044;19.258;2022-11-20T05:02:22;29.53;;;27.27;;
76405;SDS011;65234;50.044;19.258;2022-11-20T05:04:48;28.63;;;26.17;;
76405;SDS011;65234;50.044;19.258;2022-11-20T05:07:14;29.20;;;26.50;;
76405;SDS011;65234;50.044;19.258;2022-11-20T05:09:40;33.10;;;29.60;;
76405;SDS011;65234;50.044;19.258;2022-11-20T05:12:08;37.43;;;30.33;;
76405;SDS011;65234;50.044;19.258;2022-11-20T05:14:34;32.60;;;29.83;;
76405;SDS011;65234;50.044;19.258;2022-11-20T05:17:00;31.30;;;28.07;;
76405;SDS011;65234;50.044;19.258;2022-11-20T05:19:32;29.73;;;26.57;;
76405;SDS011;65234;50.044;19.258;2022-11-20T05:21:58;34.47;;;31.40;;
76405;SDS011;65234;50.044;19.258;2022-11-20T05:24:23;46.77;;;28.97;;
76405;SDS011;65234;50.044;19.258;2022-11-20T05:26:49;32.63;;;29.53;;
76405;SDS011;65234;50.044;19.258;2022-11-20T05:29:16;27.30;;;25.33;;
76405;SDS011;65234;50.044;19.258;2022-11-20T05:31:42;33.87;;;30.40;;
76405;SDS011;65234;50.044;19.258;2022-11-20T05:34:08;30.10;;;28.20;;
76405;SDS011;65234;50.044;19.258;2022-11-20T05:36:34;32.17;;;29.57;;
76405;SDS011;65234;50.044;19.258;2022-11-20T05:38:59;30.80;;;28.13;;
76405;SDS011;65234;50.044;19.258;2022-11-20T05:41:25;27.67;;;25.03;;
76405;SDS011;65234;50.044;19.258;2022-11-20T05:43:51;31.40;;;27.93;;
76405;SDS011;65234;50.044;19.258;2022-11-20T05:46:19;38.97;;;29.17;;
76405;SDS011;65234;50.044;19.258;2022-11-20T05:48:46;33.50;;;30.53;;
76405;SDS011;65234;50.044;19.258;2022-11-20T05:51:13;32.37;;;29.43;;
76405;SDS011;65234;50.044;19.258;2022-11-20T05:53:39;35.53;;;32.63;;
76405;SDS011;65234;50.044;19.258;2022-11-20T05:56:06;32.13;;;29.13;;
76405;SDS011;65234;50.044;19.258;2022-11-20T05:58:33;29.83;;;27.17;;
76405;SDS011;65234;50.044;19.258;2022-11-20T06:01:03;28.83;;;26.23;;
76405;SDS011;65234;50.044;19.258;2022-11-20T06:03:31;33.87;;;30.23;;
76405;SDS011;65234;50.044;19.258;2022-11-20T06:05:58;29.17;;;26.47;;
76405;SDS011;65234;50.044;19.258;2022-11-20T06:08:24;30.70;;;27.83;;
76405;SDS011;65234;50.044;19.258;2022-11-20T06:10:50;34.23;;;31.07;;
76405;SDS011;65234;50.044;19.258;2022-11-20T06:13:15;32.27;;;29.73;;
76405;SDS011;65234;50.044;19.258;2022-11-20T06:15:41;30.13;;;27.83;;
76405;SDS011;65234;50.044;19.258;2022-11-20T06:18:07;32.60;;;30.20;;
76405;SDS011;65234;50.044;19.258;2022-11-20T06:20:34;26.20;;;24.63;;
76405;SDS011;65234;50.044;19.258;2022-11-20T06:22:59;33.40;;;29.90;;
76405;SDS011;65234;50.044;19.258;2022-11-20T06:25:25;33.20;;;30.03;;
76405;SDS011;65234;50.044;19.258;2022-11-20T06:27:51;33.60;;;31.00;;
76405;SDS011;65234;50.044;19.258;2022-11-20T06:30:17;36.73;;;31.07;;
76405;SDS011;65234;50.044;19.258;2022-11-20T06:32:43;37.47;;;34.00;;
76405;SDS011;65234;50.044;19.258;2022-11-20T06:35:09;26.97;;;24.63;;
76405;SDS011;65234;50.044;19.258;2022-11-20T06:37:36;36.03;;;32.30;;
76405;SDS011;65234;50.044;19.258;2022-11-20T06:40:02;35.17;;;31.73;;
76405;SDS011;65234;50.044;19.258;2022-11-20T06:42:28;32.53;;;30.40;;
76405;SDS011;65234;50.044;19.258;2022-11-20T06:44:54;36.17;;;31.43;;
76405;SDS011;65234;50.044;19.258;2022-11-20T06:47:20;34.50;;;30.87;;
76405;SDS011;65234;50.044;19.258;2022-11-20T06:49:46;31.83;;;28.87;;
76405;SDS011;65234;50.044;19.258;2022-11-20T06:52:11;31.47;;;28.67;;
76405;SDS011;65234;50.044;19.258;2022-11-20T06:54:38;29.83;;;27.27;;
76405;SDS011;65234;50.044;19.258;2022-11-20T06:57:04;27.80;;;25.20;;
76405;SDS011;65234;50.044;19.258;2022-11-20T06:59:30;28.37;;;26.33;;
76405;SDS011;65234;50.044;19.258;2022-11-20T07:01:56;33.30;;;29.13;;
76405;SDS011;65234;50.044;19.258;2022-11-20T07:04:22;32.07;;;28.70;;
76405;SDS011;65234;50.044;19.258;2022-11-20T07:06:47;38.67;;;30.90;;
76405;SDS011;65234;50.044;19.258;2022-11-20T07:09:13;31.97;;;29.53;;
76405;SDS011;65234;50.044;19.258;2022-11-20T07:11:40;29.87;;;26.33;;
76405;SDS011;65234;50.044;19.258;2022-11-20T07:14:06;31.80;;;29.33;;
76405;SDS011;65234;50.044;19.258;2022-11-20T07:16:32;28.97;;;26.83;;
76405;SDS011;65234;50.044;19.258;2022-11-20T07:18:58;29.73;;;27.40;;
76405;SDS011;65234;50.044;19.258;2022-11-20T07:21:23;32.50;;;28.70;;
76405;SDS011;65234;50.044;19.258;2022-11-20T07:23:49;54.20;;;31.83;;
76405;SDS011;65234;50.044;19.258;2022-11-20T07:26:15;36.53;;;33.07;;
76405;SDS011;65234;50.044;19.258;2022-11-20T07:28:44;36.13;;;32.50;;
76405;SDS011;65234;50.044;19.258;2022-11-20T07:31:10;32.30;;;29.40;;
76405;SDS011;65234;50.044;19.258;2022-11-20T07:33:36;36.57;;;32.73;;
76405;SDS011;65234;50.044;19.258;2022-11-20T07:36:02;38.27;;;34.50;;
76405;SDS011;65234;50.044;19.258;2022-11-20T07:38:28;30.93;;;28.63;;
76405;SDS011;65234;50.044;19.258;2022-11-20T07:40:54;30.50;;;27.63;;
76405;SDS011;65234;50.044;19.258;2022-11-20T07:43:20;37.60;;;34.40;;
76405;SDS011;65234;50.044;19.258;2022-11-20T07:45:47;56.53;;;34.67;;
76405;SDS011;65234;50.044;19.258;2022-11-20T07:48:12;34.17;;;31.43;;
76405;SDS011;65234;50.044;19.258;2022-11-20T07:50:38;32.60;;;30.20;;
76405;SDS011;65234;50.044;19.258;2022-11-20T07:53:04;32.10;;;29.37;;
76405;SDS011;65234;50.044;19.258;2022-11-20T07:55:30;35.03;;;31.57;;
76405;SDS011;65234;50.044;19.258;2022-11-20T07:57:56;37.20;;;34.07;;
76405;SDS011;65234;50.044;19.258;2022-11-20T08:00:22;40.10;;;35.50;;
76405;SDS011;65234;50.044;19.258;2022-11-20T08:02:50;87.03;;;40.53;;
76405;SDS011;65234;50.044;19.258;2022-11-20T08:05:16;40.43;;;35.83;;
76405;SDS011;65234;50.044;19.258;2022-11-20T08:07:42;39.00;;;35.03;;
76405;SDS011;65234;50.044;19.258;2022-11-20T08:10:09;35.53;;;32.57;;
76405;SDS011;65234;50.044;19.258;2022-11-20T08:12:43;43.27;;;33.43;;
76405;SDS011;65234;50.044;19.258;2022-11-20T08:15:09;37.93;;;34.67;;
76405;SDS011;65234;50.044;19.258;2022-11-20T08:17:35;33.83;;;31.50;;
76405;SDS011;65234;50.044;19.258;2022-11-20T08:20:02;35.93;;;32.37;;
76405;SDS011;65234;50.044;19.258;2022-11-20T08:22:28;37.67;;;33.90;;
76405;SDS011;65234;50.044;19.258;2022-11-20T08:24:54;33.73;;;30.57;;
76405;SDS011;65234;50.044;19.258;2022-11-20T08:27:19;38.13;;;34.40;;
76405;SDS011;65234;50.044;19.258;2022-11-20T08:29:45;39.23;;;35.23;;
76405;SDS011;65234;50.044;19.258;2022-11-20T08:32:11;42.27;;;35.47;;
76405;SDS011;65234;50.044;19.258;2022-11-20T08:34:38;40.57;;;36.27;;
76405;SDS011;65234;50.044;19.258;2022-11-20T08:37:05;41.37;;;36.93;;
76405;SDS011;65234;50.044;19.258;2022-11-20T08:39:30;39.33;;;35.73;;
76405;SDS011;65234;50.044;19.258;2022-11-20T08:41:56;36.40;;;32.97;;
76405;SDS011;65234;50.044;19.258;2022-11-20T08:44:22;40.33;;;36.73;;
76405;SDS011;65234;50.044;19.258;2022-11-20T08:46:47;38.63;;;34.87;;
76405;SDS011;65234;50.044;19.258;2022-11-20T08:49:13;40.40;;;37.20;;
76405;SDS011;65234;50.044;19.258;2022-11-20T08:51:39;40.67;;;37.10;;
76405;SDS011;65234;50.044;19.258;2022-11-20T08:54:07;49.83;;;37.63;;
76405;SDS011;65234;50.044;19.258;2022-11-20T08:56:33;39.40;;;36.40;;
76405;SDS011;65234;50.044;19.258;2022-11-20T08:58:59;48.03;;;43.70;;
76405;SDS011;65234;50.044;19.258;2022-11-20T09:01:25;39.90;;;36.47;;
76405;SDS011;65234;50.044;19.258;2022-11-20T09:03:51;47.63;;;42.07;;
76405;SDS011;65234;50.044;19.258;2022-11-20T09:06:17;43.80;;;39.53;;
76405;SDS011;65234;50.044;19.258;2022-11-20T09:08:43;48.20;;;43.87;;
76405;SDS011;65234;50.044;19.258;2022-11-20T09:11:11;45.00;;;40.73;;
76405;SDS011;65234;50.044;19.258;2022-11-20T09:13:37;46.57;;;41.90;;
76405;SDS011;65234;50.044;19.258;2022-11-20T09:16:04;44.07;;;40.40;;
76405;SDS011;65234;50.044;19.258;2022-11-20T09:18:32;46.43;;;41.90;;
76405;SDS011;65234;50.044;19.258;2022-11-20T09:20:59;55.17;;;45.90;;
76405;SDS011;65234;50.044;19.258;2022-11-20T09:23:26;48.87;;;42.87;;
76405;SDS011;65234;50.044;19.258;2022-11-20T09:25:53;55.03;;;43.60;;
76405;SDS011;65234;50.044;19.258;2022-11-20T09:28:20;54.17;;;46.63;;
76405;SDS011;65234;50.044;19.258;2022-11-20T09:30:46;46.10;;;41.20;;
76405;SDS011;65234;50.044;19.258;2022-11-20T09:33:11;45.00;;;41.20;;
76405;SDS011;65234;50.044;19.258;2022-11-20T09:35:37;50.57;;;42.03;;
76405;SDS011;65234;50.044;19.258;2022-11-20T09:38:06;48.47;;;43.60;;
76405;SDS011;65234;50.044;19.258;2022-11-20T09:40:32;50.58;;;45.30;;
76405;SDS011;65234;50.044;19.258;2022-11-20T09:43:00;54.67;;;46.40;;
76405;SDS011;65234;50.044;19.258;2022-11-20T09:45:42;50.10;;;45.53;;
76405;SDS011;65234;50.044;19.258;2022-11-20T09:48:22;50.40;;;43.63;;
76405;SDS011;65234;50.044;19.258;2022-11-20T09:50:56;44.57;;;40.17;;
76405;SDS011;65234;50.044;19.258;2022-11-20T09:53:33;49.63;;;44.73;;
76405;SDS011;65234;50.044;19.258;2022-11-20T09:56:10;43.97;;;39.60;;
76405;SDS011;65234;50.044;19.258;2022-11-20T09:58:38;52.63;;;46.17;;
76405;SDS011;65234;50.044;19.258;2022-11-20T10:01:10;54.57;;;48.37;;
76405;SDS011;65234;50.044;19.258;2022-11-20T10:03:39;48.63;;;42.80;;
76405;SDS011;65234;50.044;19.258;2022-11-20T10:06:12;49.08;;;38.42;;
76405;SDS011;65234;50.044;19.258;2022-11-20T10:08:42;42.10;;;38.20;;
76405;SDS011;65234;50.044;19.258;2022-11-20T10:11:15;45.47;;;41.20;;
76405;SDS011;65234;50.044;19.258;2022-11-20T10:13:48;45.47;;;41.50;;
76405;SDS011;65234;50.044;19.258;2022-11-20T10:16:26;40.22;;;36.67;;
76405;SDS011;65234;50.044;19.258;2022-11-20T10:19:02;41.70;;;38.40;;
76405;SDS011;65234;50.044;19.258;2022-11-20T10:21:47;45.63;;;41.07;;
76405;SDS011;65234;50.044;19.258;2022-11-20T10:24:30;40.73;;;36.93;;
76405;SDS011;65234;50.044;19.258;2022-11-20T10:27:09;45.70;;;41.08;;
76405;SDS011;65234;50.044;19.258;2022-11-20T10:29:56;47.03;;;39.97;;
76405;SDS011;65234;50.044;19.258;2022-11-20T10:32:29;51.75;;;41.13;;
76405;SDS011;65234;50.044;19.258;2022-11-20T10:34:59;42.20;;;38.33;;
76405;SDS011;65234;50.044;19.258;2022-11-20T10:37:27;44.78;;;40.25;;
76405;SDS011;65234;50.044;19.258;2022-11-20T10:39:56;47.00;;;41.65;;
76405;SDS011;65234;50.044;19.258;2022-11-20T10:42:29;47.30;;;42.85;;
76405;SDS011;65234;50.044;19.258;2022-11-20T10:44:58;41.38;;;37.75;;
76405;SDS011;65234;50.044;19.258;2022-11-20T10:47:36;49.70;;;44.75;;
76405;SDS011;65234;50.044;19.258;2022-11-20T10:50:02;47.67;;;43.07;;
76405;SDS011;65234;50.044;19.258;2022-11-20T10:52:33;45.67;;;41.00;;
76405;SDS011;65234;50.044;19.258;2022-11-20T10:55:10;39.67;;;36.27;;
76405;SDS011;65234;50.044;19.258;2022-11-20T10:57:48;44.58;;;40.15;;
76405;SDS011;65234;50.044;19.258;2022-11-20T11:00:18;44.00;;;40.42;;
76405;SDS011;65234;50.044;19.258;2022-11-20T11:02:47;45.47;;;41.90;;
76405;SDS011;65234;50.044;19.258;2022-11-20T11:05:19;45.67;;;40.90;;
76405;SDS011;65234;50.044;19.258;2022-11-20T11:07:52;52.60;;;42.88;;
76405;SDS011;65234;50.044;19.258;2022-11-20T11:10:28;45.45;;;38.80;;
76405;SDS011;65234;50.044;19.258;2022-11-20T11:13:02;42.50;;;38.75;;
76405;SDS011;65234;50.044;19.258;2022-11-20T11:15:30;43.38;;;38.63;;
76405;SDS011;65234;50.044;19.258;2022-11-20T11:18:03;44.05;;;40.28;;
76405;SDS011;65234;50.044;19.258;2022-11-20T11:20:29;46.13;;;41.95;;
76405;SDS011;65234;50.044;19.258;2022-11-20T11:22:56;45.25;;;40.70;;
76405;SDS011;65234;50.044;19.258;2022-11-20T11:25:25;47.42;;;42.80;;
76405;SDS011;65234;50.044;19.258;2022-11-20T11:27:54;43.70;;;39.83;;
76405;SDS011;65234;50.044;19.258;2022-11-20T11:30:21;42.97;;;39.15;;
76405;SDS011;65234;50.044;19.258;2022-11-20T11:32:48;44.10;;;39.88;;
76405;SDS011;65234;50.044;19.258;2022-11-20T11:35:20;41.13;;;37.20;;
76405;SDS011;65234;50.044;19.258;2022-11-20T11:37:48;45.13;;;40.75;;
76405;SDS011;65234;50.044;19.258;2022-11-20T11:40:15;48.30;;;41.15;;
76405;SDS011;65234;50.044;19.258;2022-11-20T11:42:42;38.88;;;35.92;;
76405;SDS011;65234;50.044;19.258;2022-11-20T11:45:11;48.45;;;43.28;;
76405;SDS011;65234;50.044;19.258;2022-11-20T11:47:43;35.53;;;33.40;;
76405;SDS011;65234;50.044;19.258;2022-11-20T11:50:15;46.28;;;41.53;;
76405;SDS011;65234;50.044;19.258;2022-11-20T11:52:45;41.35;;;37.97;;
76405;SDS011;65234;50.044;19.258;2022-11-20T11:55:17;51.03;;;43.88;;
76405;SDS011;65234;50.044;19.258;2022-11-20T11:57:51;40.45;;;36.50;;
76405;SDS011;65234;50.044;19.258;2022-11-20T12:00:22;41.90;;;37.92;;
76405;SDS011;65234;50.044;19.258;2022-11-20T12:02:52;46.25;;;41.53;;
76405;SDS011;65234;50.044;19.258;2022-11-20T12:05:24;40.13;;;37.15;;
76405;SDS011;65234;50.044;19.258;2022-11-20T12:07:54;42.42;;;38.35;;
76405;SDS011;65234;50.044;19.258;2022-11-20T12:10:28;46.55;;;41.55;;
76405;SDS011;65234;50.044;19.258;2022-11-20T12:13:08;43.55;;;39.47;;
76405;SDS011;65234;50.044;19.258;2022-11-20T12:15:42;42.50;;;38.40;;
76405;SDS011;65234;50.044;19.258;2022-11-20T12:18:14;43.92;;;40.30;;
76405;SDS011;65234;50.044;19.258;2022-11-20T12:20:41;47.42;;;41.45;;
76405;SDS011;65234;50.044;19.258;2022-11-20T12:23:16;51.88;;;39.08;;
76405;SDS011;65234;50.044;19.258;2022-11-20T12:25:48;41.95;;;38.38;;
76405;SDS011;65234;50.044;19.258;2022-11-20T12:31:15;39.10;;;35.47;;
76405;SDS011;65234;50.044;19.258;2022-11-20T12:34:09;38.95;;;35.85;;
76405;SDS011;65234;50.044;19.258;2022-11-20T12:36:44;43.67;;;40.03;;
76405;SDS011;65234;50.044;19.258;2022-11-20T12:39:24;44.45;;;39.58;;
76405;SDS011;65234;50.044;19.258;2022-11-20T12:42:02;43.60;;;39.35;;
76405;SDS011;65234;50.044;19.258;2022-11-20T12:44:57;42.95;;;38.65;;
76405;SDS011;65234;50.044;19.258;2022-11-20T12:47:37;42.58;;;38.97;;
76405;SDS011;65234;50.044;19.258;2022-11-20T12:50:17;39.20;;;35.92;;
76405;SDS011;65234;50.044;19.258;2022-11-20T12:52:49;45.95;;;39.65;;
76405;SDS011;65234;50.044;19.258;2022-11-20T12:55:23;40.85;;;36.97;;
76405;SDS011;65234;50.044;19.258;2022-11-20T12:57:57;43.50;;;39.40;;
76405;SDS011;65234;50.044;19.258;2022-11-20T13:00:25;40.72;;;37.08;;
76405;SDS011;65234;50.044;19.258;2022-11-20T13:05:55;41.58;;;38.42;;
76405;SDS011;65234;50.044;19.258;2022-11-20T13:08:31;41.80;;;37.88;;
76405;SDS011;65234;50.044;19.258;2022-11-20T13:11:03;42.95;;;39.45;;
76405;SDS011;65234;50.044;19.258;2022-11-20T13:13:36;42.08;;;38.22;;
76405;SDS011;65234;50.044;19.258;2022-11-20T13:16:12;40.72;;;37.05;;
76405;SDS011;65234;50.044;19.258;2022-11-20T13:18:45;36.83;;;33.25;;
76405;SDS011;65234;50.044;19.258;2022-11-20T13:21:15;40.75;;;37.42;;
76405;SDS011;65234;50.044;19.258;2022-11-20T13:23:42;42.03;;;38.47;;
76405;SDS011;65234;50.044;19.258;2022-11-20T13:26:16;41.53;;;38.33;;
76405;SDS011;65234;50.044;19.258;2022-11-20T13:28:44;42.53;;;37.78;;
76405;SDS011;65234;50.044;19.258;2022-11-20T13:31:23;44.70;;;40.78;;
76405;SDS011;65234;50.044;19.258;2022-11-20T13:33:53;44.05;;;39.80;;
76405;SDS011;65234;50.044;19.258;2022-11-20T13:36:22;41.60;;;37.55;;
76405;SDS011;65234;50.044;19.258;2022-11-20T13:38:50;43.03;;;39.90;;
76405;SDS011;65234;50.044;19.258;2022-11-20T13:41:24;44.40;;;40.53;;
76405;SDS011;65234;50.044;19.258;2022-11-20T13:43:51;41.95;;;37.58;;
76405;SDS011;65234;50.044;19.258;2022-11-20T13:46:17;43.67;;;39.15;;
76405;SDS011;65234;50.044;19.258;2022-11-20T13:48:44;45.47;;;41.10;;
76405;SDS011;65234;50.044;19.258;2022-11-20T13:51:15;41.72;;;37.95;;
76405;SDS011;65234;50.044;19.258;2022-11-20T13:54:00;43.30;;;39.63;;
76405;SDS011;65234;50.044;19.258;2022-11-20T13:56:50;42.70;;;38.28;;
76405;SDS011;65234;50.044;19.258;2022-11-20T13:59:28;43.60;;;39.38;;
76405;SDS011;65234;50.044;19.258;2022-11-20T14:02:05;42.40;;;39.25;;
76405;SDS011;65234;50.044;19.258;2022-11-20T14:04:38;39.83;;;35.97;;
76405;SDS011;65234;50.044;19.258;2022-11-20T14:07:08;43.90;;;39.90;;
76405;SDS011;65234;50.044;19.258;2022-11-20T14:09:34;41.58;;;37.80;;
76405;SDS011;65234;50.044;19.258;2022-11-20T14:12:02;47.88;;;42.78;;
76405;SDS011;65234;50.044;19.258;2022-11-20T14:14:29;40.30;;;37.38;;
76405;SDS011;65234;50.044;19.258;2022-11-20T14:17:04;45.53;;;41.53;;
76405;SDS011;65234;50.044;19.258;2022-11-20T14:19:31;43.90;;;40.53;;
76405;SDS011;65234;50.044;19.258;2022-11-20T14:22:08;54.88;;;49.88;;
76405;SDS011;65234;50.044;19.258;2022-11-20T14:24:40;52.20;;;48.03;;